Time;durP1;ratioP1;P1;durP2;ratioP2;P2;SDS_P1;SDS_P2;PMS_P1;PMS_P2;Temp;Humidity;BMP_temperature;BMP_pressure;BME280_temperature;BME280_humidity;BME280_pressure;Samples;Min_cycle;Max_cycle;Signal;HPM_P1;HPM_P2
2023/01/09 00:01:41;;;;;;;0.00;0.00;;;8.50;99.90;;;;;;5012401;28;20209;-62
2023/01/09 00:04:08;;;;;;;0.00;0.00;;;8.40;99.90;;;;;;4994518;28;20291;-62
2023/01/09 00:06:34;;;;;;;0.00;0.00;;;8.40;99.90;;;;;;5001962;28;20168;-62
2023/01/09 00:09:00;;;;;;;0.00;0.00;;;8.40;99.90;;;;;;5013851;28;20707;-62
2023/01/09 00:11:26;;;;;;;0.00;0.00;;;8.40;99.90;;;;;;5013564;28;20229;-63
2023/01/09 00:13:51;;;;;;;0.00;0.00;;;8.40;99.90;;;;;;4996308;28;20182;-62
2023/01/09 00:16:17;;;;;;;0.00;0.00;;;8.40;99.90;;;;;;5013902;28;20190;-62
2023/01/09 00:18:43;;;;;;;0.00;0.00;;;8.40;99.90;;;;;;5006007;28;20326;-62
2023/01/09 00:21:10;;;;;;;0.00;0.00;;;8.40;99.90;;;;;;4994194;28;20646;-62
2023/01/09 00:23:36;;;;;;;0.00;0.00;;;8.30;99.90;;;;;;4994027;28;20574;-62
2023/01/09 00:26:14;;;;;;;0.00;0.00;;;8.30;99.90;;;;;;4994114;28;20176;-62
2023/01/09 00:28:39;;;;;;;0.00;0.00;;;8.30;99.90;;;;;;4998642;28;20175;-63
2023/01/09 00:31:08;;;;;;;0.00;0.00;;;8.30;99.90;;;;;;5013336;28;20661;-63
2023/01/09 00:33:38;;;;;;;0.00;0.00;;;8.40;99.90;;;;;;5013410;28;20622;-63
2023/01/09 00:36:04;;;;;;;0.00;0.00;;;8.30;99.90;;;;;;5013489;28;20638;-63
2023/01/09 00:38:30;;;;;;;0.00;0.00;;;8.30;99.90;;;;;;4994668;28;20175;-63
2023/01/09 00:40:56;;;;;;;0.00;0.00;;;8.30;99.90;;;;;;5013524;28;20180;-62
2023/01/09 00:43:31;;;;;;;0.00;0.00;;;8.30;99.90;;;;;;5013347;28;20218;-62
2023/01/09 00:45:59;;;;;;;0.00;0.00;;;8.30;99.90;;;;;;5013344;28;20646;-62
2023/01/09 00:48:26;;;;;;;0.00;0.00;;;8.30;99.90;;;;;;5013152;28;20248;-63
2023/01/09 00:50:58;;;;;;;0.00;0.00;;;8.30;99.90;;;;;;5013209;28;20175;-63
2023/01/09 00:53:30;;;;;;;0.00;0.00;;;8.30;99.90;;;;;;5012821;28;20559;-63
2023/01/09 00:55:59;;;;;;;0.00;0.00;;;8.30;99.90;;;;;;5012872;28;20530;-63
2023/01/09 00:58:25;;;;;;;0.05;0.05;;;8.30;99.90;;;;;;5012853;28;20639;-63
2023/01/09 01:00:51;;;;;;;0.00;0.00;;;8.30;99.90;;;;;;5012836;28;20286;-63
2023/01/09 01:03:16;;;;;;;0.00;0.00;;;8.30;99.90;;;;;;5012181;28;20261;-63
2023/01/09 01:08:26;;;;;;;0.00;0.00;;;8.30;99.90;;;;;;5006820;28;20672;-63
2023/01/09 01:10:51;;;;;;;0.00;0.00;;;8.30;99.90;;;;;;5006391;28;20199;-63
2023/01/09 01:13:17;;;;;;;0.00;0.00;;;8.30;99.90;;;;;;5002625;28;20203;-63
2023/01/09 01:15:44;;;;;;;0.00;0.00;;;8.30;99.90;;;;;;5012133;28;20186;-63
2023/01/09 01:18:12;;;;;;;0.00;0.00;;;8.30;99.90;;;;;;5012285;28;20210;-63
2023/01/09 01:20:42;;;;;;;0.00;0.00;;;8.30;99.90;;;;;;5007416;28;20685;-64
2023/01/09 01:23:08;;;;;;;0.00;0.00;;;8.30;99.90;;;;;;4992829;28;20257;-63
2023/01/09 01:25:42;;;;;;;0.00;0.00;;;8.30;99.90;;;;;;4986208;28;20187;-64
2023/01/09 01:28:09;;;;;;;0.00;0.00;;;8.30;99.90;;;;;;5012651;28;20244;-63
2023/01/09 01:30:39;;;;;;;0.00;0.00;;;8.30;99.90;;;;;;5012385;28;20214;-63
2023/01/09 01:33:04;;;;;;;0.00;0.00;;;8.30;99.90;;;;;;5012439;28;20220;-63
2023/01/09 01:35:30;;;;;;;0.00;0.00;;;8.30;99.90;;;;;;5012163;28;20179;-63
2023/01/09 01:37:56;;;;;;;0.00;0.00;;;8.30;99.90;;;;;;5012099;28;20538;-64
2023/01/09 01:40:21;;;;;;;0.00;0.00;;;8.30;99.90;;;;;;5012033;28;20668;-64
2023/01/09 01:42:52;;;;;;;0.00;0.00;;;8.30;99.90;;;;;;5011378;28;20211;-63
2023/01/09 01:45:25;;;;;;;0.00;0.00;;;8.30;99.90;;;;;;5012053;28;20183;-63
2023/01/09 01:47:56;;;;;;;0.00;0.00;;;8.30;99.90;;;;;;5011803;28;20718;-64
2023/01/09 01:50:33;;;;;;;0.00;0.00;;;8.30;99.90;;;;;;5011626;28;20179;-63
2023/01/09 01:53:01;;;;;;;0.00;0.00;;;8.30;99.90;;;;;;5011601;28;20265;-64
2023/01/09 01:55:27;;;;;;;0.00;0.00;;;8.40;99.90;;;;;;5003199;28;20713;-63
2023/01/09 01:57:57;;;;;;;0.00;0.00;;;8.40;99.90;;;;;;5011935;28;20289;-63
2023/01/09 02:00:28;;;;;;;0.00;0.00;;;8.40;99.90;;;;;;5005070;28;20262;-63
2023/01/09 02:02:54;;;;;;;0.00;0.00;;;8.40;99.90;;;;;;4994832;28;20210;-63
2023/01/09 02:05:20;;;;;;;0.00;0.00;;;8.40;99.90;;;;;;5011702;28;20179;-63
2023/01/09 02:07:45;;;;;;;0.00;0.00;;;8.50;99.90;;;;;;5006582;28;20182;-63
2023/01/09 02:10:11;;;;;;;0.00;0.00;;;8.50;99.90;;;;;;4993703;28;20283;-63
2023/01/09 02:12:36;;;;;;;0.00;0.00;;;8.50;99.90;;;;;;5011869;28;20178;-63
2023/01/09 02:15:08;;;;;;;0.00;0.00;;;8.40;99.90;;;;;;5011983;28;20309;-63
2023/01/09 02:17:55;;;;;;;0.00;0.00;;;8.40;99.90;;;;;;5012010;28;20174;-64
2023/01/09 02:20:33;;;;;;;0.00;0.00;;;8.40;99.90;;;;;;5011246;28;20911;-63
2023/01/09 02:23:17;;;;;;;0.00;0.00;;;8.40;99.90;;;;;;5011410;28;20568;-63
2023/01/09 02:26:06;;;;;;;0.00;0.00;;;8.40;99.90;;;;;;5009983;28;20190;-63
2023/01/09 02:28:57;;;;;;;0.00;0.00;;;8.40;99.90;;;;;;5010909;28;20194;-63
2023/01/09 02:31:36;;;;;;;0.00;0.00;;;8.40;99.90;;;;;;5001060;28;20309;-63
2023/01/09 02:34:26;;;;;;;0.00;0.00;;;8.40;99.90;;;;;;5011879;28;20179;-63
2023/01/09 02:37:06;;;;;;;0.00;0.00;;;8.40;99.90;;;;;;4992212;28;20191;-63
2023/01/09 02:39:48;;;;;;;0.00;0.00;;;8.30;99.90;;;;;;4992131;28;20198;-63
2023/01/09 02:42:22;;;;;;;0.00;0.00;;;8.30;99.90;;;;;;4992027;28;20203;-63
2023/01/09 02:44:48;;;;;;;0.00;0.00;;;8.20;99.90;;;;;;4992067;28;20250;-63
2023/01/09 02:47:16;;;;;;;0.00;0.00;;;8.20;99.90;;;;;;4997438;28;20175;-63
2023/01/09 02:49:49;;;;;;;0.00;0.00;;;8.30;99.90;;;;;;4994109;28;20191;-63
2023/01/09 02:52:29;;;;;;;0.00;0.00;;;8.30;99.90;;;;;;5011700;28;20198;-63
2023/01/09 02:55:33;;;;;;;0.00;0.00;;;8.20;99.90;;;;;;5010893;28;20261;-63
2023/01/09 02:58:07;;;;;;;0.00;0.00;;;8.20;99.90;;;;;;5002836;28;20197;-63
2023/01/09 03:00:48;;;;;;;0.00;0.00;;;8.20;99.90;;;;;;5010807;28;20174;-63
2023/01/09 03:03:35;;;;;;;0.00;0.00;;;8.20;99.90;;;;;;5012138;28;20225;-63
2023/01/09 03:06:14;;;;;;;0.00;0.00;;;8.20;99.90;;;;;;5011494;28;20395;-63
2023/01/09 03:08:43;;;;;;;0.00;0.00;;;8.20;99.90;;;;;;5011297;28;20268;-63
2023/01/09 03:11:10;;;;;;;0.00;0.00;;;8.20;99.90;;;;;;5015076;28;20179;-63
2023/01/09 03:13:51;;;;;;;0.00;0.00;;;8.20;99.90;;;;;;5014726;28;20186;-63
2023/01/09 03:16:25;;;;;;;0.00;0.00;;;8.20;99.90;;;;;;5014866;28;20166;-63
2023/01/09 03:18:53;;;;;;;0.00;0.00;;;8.30;99.90;;;;;;5014492;28;20182;-63
2023/01/09 03:21:20;;;;;;;0.00;0.00;;;8.30;99.90;;;;;;5014814;28;20171;-63
2023/01/09 03:23:48;;;;;;;0.00;0.00;;;8.30;99.90;;;;;;5014684;28;20183;-63
2023/01/09 03:26:13;;;;;;;0.00;0.00;;;8.30;99.90;;;;;;5014833;28;20230;-62
2023/01/09 03:28:39;;;;;;;0.00;0.00;;;8.30;99.90;;;;;;5014620;28;20174;-62
2023/01/09 03:31:05;;;;;;;0.00;0.00;;;8.30;99.90;;;;;;5014121;28;20490;-63
2023/01/09 03:33:30;;;;;;;0.00;0.00;;;8.30;99.90;;;;;;5013925;28;20193;-64
2023/01/09 03:35:56;;;;;;;0.00;0.00;;;8.20;99.90;;;;;;5004485;28;20218;-63
2023/01/09 03:38:21;;;;;;;0.00;0.00;;;8.10;99.90;;;;;;5012572;28;20210;-63
2023/01/09 03:40:47;;;;;;;0.00;0.00;;;8.00;99.90;;;;;;5013459;28;20179;-64
2023/01/09 03:43:13;;;;;;;0.00;0.00;;;7.90;99.90;;;;;;5001272;28;20223;-63
2023/01/09 03:45:38;;;;;;;0.00;0.00;;;7.70;99.90;;;;;;4994487;28;20638;-63
2023/01/09 03:48:04;;;;;;;0.00;0.00;;;7.60;99.90;;;;;;5013552;28;20657;-63
2023/01/09 03:50:30;;;;;;;0.00;0.00;;;7.50;99.90;;;;;;5013939;28;20182;-64
2023/01/09 03:52:55;;;;;;;0.00;0.00;;;7.50;99.90;;;;;;5013793;28;20634;-64
2023/01/09 03:55:21;;;;;;;0.00;0.00;;;7.40;99.90;;;;;;5013319;28;20737;-63
2023/01/09 03:57:47;;;;;;;0.00;0.00;;;7.30;99.90;;;;;;5003117;28;20222;-63
2023/01/09 04:00:13;;;;;;;0.00;0.00;;;7.30;99.90;;;;;;5007726;28;20183;-63
2023/01/09 04:02:39;;;;;;;0.00;0.00;;;7.30;99.90;;;;;;5012929;28;20302;-63
2023/01/09 04:05:05;;;;;;;0.00;0.00;;;7.20;99.90;;;;;;5012258;28;20265;-63
2023/01/09 04:07:30;;;;;;;0.00;0.00;;;7.20;99.90;;;;;;5012882;28;20766;-63
2023/01/09 04:09:56;;;;;;;0.00;0.00;;;7.20;99.90;;;;;;5012924;28;20270;-63
2023/01/09 04:12:21;;;;;;;0.00;0.00;;;7.10;99.90;;;;;;5013097;28;20517;-63
2023/01/09 04:14:47;;;;;;;0.00;0.00;;;7.10;99.90;;;;;;5012893;28;20254;-64
2023/01/09 04:17:12;;;;;;;0.00;0.00;;;7.00;99.90;;;;;;5012827;28;20197;-63
2023/01/09 04:19:38;;;;;;;0.00;0.00;;;7.00;99.90;;;;;;5012418;28;20598;-64
2023/01/09 04:22:03;;;;;;;0.00;0.00;;;7.00;99.90;;;;;;5012730;28;20210;-63
2023/01/09 04:24:31;;;;;;;0.00;0.00;;;7.00;99.90;;;;;;5012644;28;20195;-63
2023/01/09 04:26:56;;;;;;;0.00;0.00;;;6.90;99.90;;;;;;5012551;28;20206;-63
2023/01/09 04:29:22;;;;;;;0.00;0.00;;;6.90;99.90;;;;;;5012914;28;20225;-63
2023/01/09 04:31:47;;;;;;;0.00;0.00;;;6.80;99.90;;;;;;5012738;28;20602;-63
2023/01/09 04:34:13;;;;;;;0.00;0.00;;;6.80;99.90;;;;;;5012860;28;20248;-64
2023/01/09 04:36:39;;;;;;;0.00;0.00;;;6.80;99.90;;;;;;4994769;28;20183;-64
2023/01/09 04:39:04;;;;;;;0.00;0.00;;;6.70;99.90;;;;;;5012655;28;20181;-64
2023/01/09 04:41:48;;;;;;;0.00;0.00;;;6.70;99.90;;;;;;5011251;28;20657;-64
2023/01/09 04:44:18;;;;;;;0.00;0.00;;;6.60;99.90;;;;;;5011576;28;20248;-64
2023/01/09 04:46:44;;;;;;;0.00;0.00;;;6.60;99.90;;;;;;5011964;28;20181;-64
2023/01/09 04:49:09;;;;;;;0.00;0.00;;;6.60;99.90;;;;;;5012348;28;20186;-64
2023/01/09 04:51:35;;;;;;;0.00;0.00;;;6.60;99.90;;;;;;5012547;28;20286;-65
2023/01/09 04:54:00;;;;;;;0.00;0.00;;;6.60;99.90;;;;;;5011017;28;20276;-63
2023/01/09 04:56:26;;;;;;;0.00;0.00;;;6.60;99.90;;;;;;5012762;28;20183;-63
2023/01/09 04:58:52;;;;;;;0.00;0.00;;;6.60;99.90;;;;;;5012380;28;20182;-64
2023/01/09 05:01:17;;;;;;;0.00;0.00;;;6.60;99.90;;;;;;4989397;28;20182;-63
2023/01/09 05:03:43;;;;;;;0.00;0.00;;;6.60;99.90;;;;;;5008354;28;20250;-65
2023/01/09 05:06:08;;;;;;;0.00;0.00;;;6.50;99.90;;;;;;5012330;28;20550;-63
2023/01/09 05:08:34;;;;;;;0.00;0.00;;;6.60;99.90;;;;;;5011867;28;20183;-61
2023/01/09 05:10:59;;;;;;;0.00;0.00;;;6.60;99.90;;;;;;5012064;28;20224;-62
2023/01/09 05:13:25;;;;;;;0.00;0.00;;;6.60;99.90;;;;;;5011862;28;20309;-62
2023/01/09 05:15:51;;;;;;;0.00;0.00;;;6.60;99.90;;;;;;4994425;28;20657;-62
2023/01/09 05:18:16;;;;;;;0.00;0.00;;;6.60;99.90;;;;;;5011556;28;20572;-62
2023/01/09 05:20:44;;;;;;;0.00;0.00;;;6.60;99.90;;;;;;5011223;28;20174;-62
2023/01/09 05:23:09;;;;;;;0.00;0.00;;;6.60;99.90;;;;;;4989976;28;20210;-62
2023/01/09 05:25:35;;;;;;;0.43;0.43;;;6.70;99.90;;;;;;5011457;28;20167;-62
2023/01/09 05:28:00;;;;;;;0.00;0.00;;;7.30;99.90;;;;;;5011844;28;20249;-62
2023/01/09 05:30:27;;;;;;;0.00;0.00;;;7.40;99.90;;;;;;5011013;28;20513;-62
2023/01/09 05:32:52;;;;;;;0.40;0.40;;;7.10;99.90;;;;;;5012513;28;20233;-62
2023/01/09 05:35:19;;;;;;;0.00;0.00;;;7.00;99.90;;;;;;5012703;28;20179;-62
2023/01/09 05:37:45;;;;;;;0.00;0.00;;;6.90;99.90;;;;;;5011344;28;20259;-62
2023/01/09 05:40:11;;;;;;;0.00;0.00;;;6.70;99.90;;;;;;5012514;28;20177;-62
2023/01/09 05:42:36;;;;;;;0.00;0.00;;;6.70;99.90;;;;;;5012423;28;20225;-62
2023/01/09 05:45:03;;;;;;;0.00;0.00;;;6.60;99.90;;;;;;5012614;28;20174;-62
2023/01/09 05:47:28;;;;;;;0.00;0.00;;;6.60;99.90;;;;;;5012467;28;20187;-62
2023/01/09 05:49:55;;;;;;;0.00;0.00;;;6.50;99.90;;;;;;5012518;28;20179;-62
2023/01/09 05:52:21;;;;;;;3.08;1.25;;;6.50;99.90;;;;;;5012560;28;20194;-62
2023/01/09 05:54:46;;;;;;;0.00;0.00;;;6.50;99.90;;;;;;5012338;28;20308;-62
2023/01/09 05:57:12;;;;;;;0.00;0.00;;;6.40;99.90;;;;;;5012358;28;20214;-62
2023/01/09 05:59:38;;;;;;;0.00;0.00;;;6.40;99.90;;;;;;5012494;28;20171;-62
2023/01/09 06:02:03;;;;;;;0.00;0.00;;;6.40;99.90;;;;;;5012245;28;20221;-62
2023/01/09 06:04:29;;;;;;;0.00;0.00;;;6.40;99.90;;;;;;5012205;28;20202;-62
2023/01/09 06:06:55;;;;;;;0.00;0.00;;;6.40;99.90;;;;;;5012141;28;20179;-62
2023/01/09 06:09:20;;;;;;;0.00;0.00;;;6.30;99.90;;;;;;5012140;28;20182;-62
2023/01/09 06:11:46;;;;;;;0.00;0.00;;;6.30;99.90;;;;;;5012097;28;20185;-62
2023/01/09 06:14:11;;;;;;;0.00;0.00;;;6.30;99.90;;;;;;4994324;28;20188;-62
2023/01/09 06:16:37;;;;;;;0.00;0.00;;;6.30;99.90;;;;;;5012105;28;20171;-63
2023/01/09 06:19:04;;;;;;;0.00;0.00;;;6.30;99.90;;;;;;5012179;28;20693;-62
2023/01/09 06:21:30;;;;;;;0.00;0.00;;;6.30;99.90;;;;;;5011895;28;20171;-62
2023/01/09 06:23:56;;;;;;;0.00;0.00;;;6.30;99.90;;;;;;5012212;28;20190;-62
2023/01/09 06:26:22;;;;;;;0.00;0.00;;;6.30;99.90;;;;;;5012019;28;20175;-62
2023/01/09 06:28:48;;;;;;;0.00;0.00;;;6.30;99.90;;;;;;5012072;28;20179;-62
2023/01/09 06:31:13;;;;;;;0.00;0.00;;;6.30;99.90;;;;;;5011925;28;20236;-62
2023/01/09 06:33:39;;;;;;;0.00;0.00;;;6.30;99.90;;;;;;5011715;28;20252;-62
2023/01/09 06:36:05;;;;;;;0.00;0.00;;;6.30;99.90;;;;;;5012616;28;20171;-62
2023/01/09 06:38:30;;;;;;;0.00;0.00;;;6.40;99.90;;;;;;5015550;28;20322;-62
2023/01/09 06:40:56;;;;;;;0.00;0.00;;;6.40;99.90;;;;;;5015716;28;20190;-63
2023/01/09 06:43:21;;;;;;;0.00;0.00;;;6.40;99.90;;;;;;5015701;28;20696;-62
2023/01/09 06:45:47;;;;;;;0.00;0.00;;;6.40;99.90;;;;;;5015648;28;20189;-62
2023/01/09 06:48:13;;;;;;;0.00;0.00;;;6.40;99.90;;;;;;5015528;28;20182;-62
2023/01/09 06:50:38;;;;;;;0.00;0.00;;;6.40;99.90;;;;;;4998103;28;20179;-62
2023/01/09 06:53:04;;;;;;;0.00;0.00;;;6.50;99.90;;;;;;5015499;28;20223;-62
2023/01/09 06:55:29;;;;;;;0.00;0.00;;;6.40;99.90;;;;;;5015626;28;20189;-62
2023/01/09 06:57:55;;;;;;;0.00;0.00;;;6.50;99.90;;;;;;4998157;28;20183;-62
2023/01/09 07:00:21;;;;;;;0.00;0.00;;;6.50;99.90;;;;;;5015706;28;20267;-62
2023/01/09 07:02:46;;;;;;;0.10;0.10;;;6.50;99.90;;;;;;5015407;28;20214;-63
2023/01/09 07:05:12;;;;;;;0.00;0.00;;;6.50;99.90;;;;;;5015447;28;20634;-62
2023/01/09 07:07:39;;;;;;;0.10;0.10;;;6.50;99.90;;;;;;5015374;28;20604;-62
2023/01/09 07:10:06;;;;;;;0.00;0.00;;;6.60;99.90;;;;;;5015512;28;20564;-62
2023/01/09 07:12:31;;;;;;;0.00;0.00;;;6.60;99.90;;;;;;5015273;28;20194;-63
2023/01/09 07:14:57;;;;;;;0.00;0.00;;;6.60;99.90;;;;;;5015460;28;20170;-62
2023/01/09 07:17:22;;;;;;;0.00;0.00;;;6.60;99.90;;;;;;5015308;28;20175;-63
2023/01/09 07:19:48;;;;;;;0.00;0.00;;;6.60;99.90;;;;;;5015185;28;20210;-63
2023/01/09 07:22:13;;;;;;;0.00;0.00;;;6.60;99.90;;;;;;5015268;28;20344;-62
2023/01/09 07:24:39;;;;;;;0.00;0.00;;;6.60;99.90;;;;;;5015224;28;20183;-62
2023/01/09 07:27:04;;;;;;;0.00;0.00;;;6.60;99.90;;;;;;5015306;28;20175;-62
2023/01/09 07:29:30;;;;;;;0.00;0.00;;;6.60;99.90;;;;;;5014856;28;20175;-62
2023/01/09 07:31:56;;;;;;;0.00;0.00;;;6.70;99.90;;;;;;5015107;28;20261;-62
2023/01/09 07:34:21;;;;;;;0.00;0.00;;;6.80;99.90;;;;;;5015122;28;20174;-62
2023/01/09 07:36:49;;;;;;;0.00;0.00;;;6.80;99.90;;;;;;5014956;28;20287;-62
2023/01/09 07:39:15;;;;;;;0.00;0.00;;;6.80;99.90;;;;;;5014978;28;20221;-62
2023/01/09 07:41:40;;;;;;;0.00;0.00;;;6.80;99.90;;;;;;5015007;28;20266;-63
2023/01/09 07:44:06;;;;;;;0.00;0.00;;;6.80;99.90;;;;;;5014930;28;20198;-62
2023/01/09 07:46:32;;;;;;;0.00;0.00;;;6.90;99.90;;;;;;5014257;28;20175;-63
2023/01/09 07:48:57;;;;;;;0.00;0.00;;;6.90;99.90;;;;;;5014793;28;20179;-62
2023/01/09 07:51:23;;;;;;;0.00;0.00;;;6.90;99.90;;;;;;5014795;28;20190;-62
2023/01/09 07:53:48;;;;;;;0.00;0.00;;;6.90;99.90;;;;;;5014413;28;20257;-62
2023/01/09 07:56:14;;;;;;;0.00;0.00;;;7.00;99.90;;;;;;5014724;28;20181;-62
2023/01/09 07:58:39;;;;;;;0.00;0.00;;;7.10;99.90;;;;;;5014613;28;20253;-62
2023/01/09 08:01:05;;;;;;;0.00;0.00;;;7.10;99.90;;;;;;5014526;28;20225;-62
2023/01/09 08:03:32;;;;;;;0.00;0.00;;;7.10;99.90;;;;;;5014279;28;20215;-63
2023/01/09 08:05:58;;;;;;;0.00;0.00;;;7.10;99.90;;;;;;5014497;28;20174;-62
2023/01/09 08:08:24;;;;;;;0.00;0.00;;;7.10;99.90;;;;;;5014388;28;20179;-63
2023/01/09 08:10:50;;;;;;;0.00;0.00;;;7.20;99.90;;;;;;5014218;28;20182;-62
2023/01/09 08:13:15;;;;;;;0.00;0.00;;;7.20;99.90;;;;;;5014307;28;20181;-63
2023/01/09 08:15:41;;;;;;;0.00;0.00;;;7.40;99.90;;;;;;5014243;28;20221;-63
2023/01/09 08:18:06;;;;;;;0.00;0.00;;;7.40;99.90;;;;;;5014254;28;20175;-63
2023/01/09 08:20:32;;;;;;;0.00;0.00;;;7.50;99.90;;;;;;5013957;28;20175;-63
2023/01/09 08:22:57;;;;;;;0.00;0.00;;;7.60;99.90;;;;;;5014092;28;20218;-63
2023/01/09 08:25:24;;;;;;;0.00;0.00;;;7.60;99.90;;;;;;5014102;28;20171;-63
2023/01/09 08:27:49;;;;;;;0.00;0.00;;;7.60;99.90;;;;;;5013910;28;20178;-63
2023/01/09 08:30:16;;;;;;;0.00;0.00;;;7.70;99.90;;;;;;5013994;28;20183;-63
2023/01/09 08:32:41;;;;;;;0.00;0.00;;;7.70;99.90;;;;;;5013876;28;20210;-63
2023/01/09 08:35:08;;;;;;;0.00;0.00;;;7.80;99.90;;;;;;5013959;28;20577;-63
2023/01/09 08:37:33;;;;;;;0.00;0.00;;;7.90;99.90;;;;;;5013946;28;20262;-63
2023/01/09 08:39:59;;;;;;;0.00;0.00;;;8.00;99.90;;;;;;5013867;28;20265;-63
2023/01/09 08:47:54;;;;;;;0.00;0.00;;;8.20;99.90;;;;;;5013960;28;20185;-62
2023/01/09 08:50:20;;;;;;;0.00;0.00;;;8.30;99.90;;;;;;5013756;28;20179;-63
2023/01/09 08:52:45;;;;;;;0.00;0.00;;;8.40;99.90;;;;;;5013355;28;20179;-63
2023/01/09 08:55:11;;;;;;;0.00;0.00;;;8.40;99.90;;;;;;5013441;28;20183;-63
2023/01/09 08:57:36;;;;;;;0.00;0.00;;;8.40;99.90;;;;;;5013445;28;20174;-63
2023/01/09 09:00:03;;;;;;;1.25;1.17;;;8.40;99.90;;;;;;5012603;28;20174;-63
2023/01/09 09:02:28;;;;;;;0.00;0.00;;;8.30;99.90;;;;;;5013162;28;20274;-63
2023/01/09 09:04:55;;;;;;;0.00;0.00;;;8.30;99.90;;;;;;5013463;28;20179;-62
2023/01/09 09:07:25;;;;;;;0.00;0.00;;;8.30;99.90;;;;;;5013282;28;20175;-62
2023/01/09 09:09:54;;;;;;;0.00;0.00;;;8.20;99.90;;;;;;5013119;28;20182;-62
2023/01/09 09:12:20;;;;;;;0.00;0.00;;;8.20;99.90;;;;;;5013336;28;20266;-62
2023/01/09 09:17:31;;;;;;;0.00;0.00;;;8.10;99.90;;;;;;5013097;28;20178;-62
2023/01/09 09:19:57;;;;;;;0.00;0.00;;;8.10;99.90;;;;;;5013292;28;20580;-62
2023/01/09 09:22:23;;;;;;;0.00;0.00;;;8.10;99.90;;;;;;5012996;28;20213;-63
2023/01/09 09:24:48;;;;;;;0.00;0.00;;;8.10;99.90;;;;;;5013231;28;20233;-63
2023/01/09 09:27:14;;;;;;;0.00;0.00;;;8.00;99.90;;;;;;5013053;28;20228;-62
2023/01/09 09:29:39;;;;;;;0.00;0.00;;;8.00;99.90;;;;;;5012901;28;20178;-62
2023/01/09 09:32:05;;;;;;;0.00;0.00;;;8.00;99.90;;;;;;5013044;28;20250;-62
2023/01/09 09:34:30;;;;;;;0.00;0.00;;;8.00;99.90;;;;;;5012786;28;20185;-62
2023/01/09 09:36:56;;;;;;;0.00;0.00;;;8.00;99.90;;;;;;5012889;28;20205;-62
2023/01/09 09:39:21;;;;;;;0.00;0.00;;;8.00;99.90;;;;;;5012887;28;20700;-63
2023/01/09 09:45:15;;;;;;;0.00;0.00;;;8.10;99.90;;;;;;5012796;28;20270;-63
2023/01/09 09:48:02;;;;;;;0.00;0.00;;;8.10;99.90;;;;;;5012680;28;20178;-63
2023/01/09 09:50:49;;;;;;;0.00;0.00;;;8.10;99.90;;;;;;5012708;28;20179;-63
2023/01/09 09:53:33;;;;;;;0.00;0.00;;;8.10;99.90;;;;;;5012356;28;20234;-63
2023/01/09 09:56:01;;;;;;;0.00;0.00;;;8.10;99.90;;;;;;5012513;28;20229;-63
2023/01/09 09:58:42;;;;;;;0.55;0.43;;;8.10;99.90;;;;;;5012455;28;20229;-63
2023/01/09 10:01:11;;;;;;;0.00;0.00;;;8.10;99.90;;;;;;5012622;28;20180;-63
2023/01/09 10:03:54;;;;;;;0.00;0.00;;;8.20;99.90;;;;;;5012369;28;20666;-62
2023/01/09 10:06:24;;;;;;;0.00;0.00;;;8.20;99.90;;;;;;5012469;28;20235;-63
2023/01/09 10:09:23;;;;;;;0.00;0.00;;;8.20;99.90;;;;;;5012247;28;20656;-62
2023/01/09 10:11:52;;;;;;;0.00;0.00;;;8.20;99.90;;;;;;5004121;28;20610;-62
2023/01/09 10:14:17;;;;;;;0.00;0.00;;;8.30;99.90;;;;;;5012351;28;20646;-62
2023/01/09 10:17:13;;;;;;;0.00;0.00;;;8.30;99.90;;;;;;5012248;28;20181;-63
2023/01/09 10:20:03;;;;;;;0.00;0.00;;;8.40;99.90;;;;;;5012296;28;20593;-63
2023/01/09 10:22:37;;;;;;;0.00;0.00;;;8.40;99.90;;;;;;5012189;28;20230;-63
2023/01/09 10:25:17;;;;;;;0.00;0.00;;;8.40;99.90;;;;;;5012263;28;20653;-63
2023/01/09 10:28:19;;;;;;;0.00;0.00;;;8.50;99.90;;;;;;5012127;28;20186;-63
2023/01/09 10:30:49;;;;;;;0.00;0.00;;;8.60;99.90;;;;;;4994553;28;20202;-62
2023/01/09 10:33:33;;;;;;;0.00;0.00;;;8.60;99.90;;;;;;5012200;28;20190;-62
2023/01/09 10:36:12;;;;;;;0.00;0.00;;;8.60;99.90;;;;;;5012280;28;20233;-62
2023/01/09 10:38:44;;;;;;;0.00;0.00;;;8.70;99.90;;;;;;5012068;28;20222;-63
2023/01/09 10:41:35;;;;;;;0.00;0.00;;;8.70;99.90;;;;;;5012130;28;20172;-63
2023/01/09 10:44:19;;;;;;;0.00;0.00;;;8.70;99.90;;;;;;5011946;28;20211;-63
2023/01/09 10:46:53;;;;;;;0.00;0.00;;;8.80;99.90;;;;;;5012074;28;20267;-62
2023/01/09 10:49:20;;;;;;;0.00;0.00;;;8.80;99.90;;;;;;5012178;28;20266;-62
2023/01/09 10:52:14;;;;;;;0.00;0.00;;;8.80;99.90;;;;;;5011944;28;20175;-62
2023/01/09 10:54:46;;;;;;;0.00;0.00;;;8.90;99.90;;;;;;5009201;28;20693;-62
2023/01/09 10:57:18;;;;;;;0.00;0.00;;;8.90;99.90;;;;;;5011863;28;20210;-62
2023/01/09 10:59:43;;;;;;;0.00;0.00;;;8.80;99.90;;;;;;5011915;28;20179;-63
2023/01/09 11:02:32;;;;;;;0.00;0.00;;;8.80;99.90;;;;;;5011743;28;20230;-62
2023/01/09 11:04:58;;;;;;;0.00;0.00;;;8.70;99.90;;;;;;5012015;28;20222;-62
2023/01/09 11:07:30;;;;;;;0.00;0.00;;;8.70;99.90;;;;;;5011853;28;20203;-63
2023/01/09 11:10:03;;;;;;;0.00;0.00;;;8.70;99.90;;;;;;5011971;28;20171;-63
2023/01/09 11:12:31;;;;;;;0.00;0.00;;;8.60;99.90;;;;;;5011673;28;20179;-63
2023/01/09 11:15:14;;;;;;;0.00;0.00;;;8.60;99.90;;;;;;5011812;28;20175;-62
2023/01/09 11:17:41;;;;;;;0.00;0.00;;;8.60;99.90;;;;;;5011722;28;20194;-63
2023/01/09 11:20:21;;;;;;;0.00;0.00;;;8.60;99.90;;;;;;5011805;28;20197;-63
2023/01/09 11:22:52;;;;;;;0.00;0.00;;;8.60;99.90;;;;;;5013426;28;20742;-62
2023/01/09 11:25:19;;;;;;;0.00;0.00;;;8.70;99.90;;;;;;5015322;28;20171;-63
2023/01/09 11:28:00;;;;;;;0.00;0.00;;;8.70;99.90;;;;;;5015151;28;20345;-62
2023/01/09 11:30:26;;;;;;;0.00;0.00;;;8.70;99.90;;;;;;5015132;28;20186;-62
2023/01/09 11:32:53;;;;;;;0.00;0.00;;;8.80;99.90;;;;;;5015045;28;20270;-63
2023/01/09 11:35:32;;;;;;;0.00;0.00;;;8.80;99.90;;;;;;5015120;28;20187;-62
2023/01/09 11:38:14;;;;;;;0.00;0.00;;;8.80;99.90;;;;;;5015142;28;20170;-63
2023/01/09 11:40:52;;;;;;;0.00;0.00;;;8.80;99.90;;;;;;5014907;28;20237;-62
2023/01/09 11:43:37;;;;;;;0.00;0.00;;;8.90;99.90;;;;;;5014915;28;20214;-62
2023/01/09 11:46:05;;;;;;;0.00;0.00;;;8.90;99.90;;;;;;5015007;28;20682;-63
2023/01/09 11:48:33;;;;;;;0.00;0.00;;;8.90;99.90;;;;;;5014604;28;20174;-63
2023/01/09 11:51:00;;;;;;;0.00;0.00;;;8.90;99.90;;;;;;5014848;28;20179;-63
2023/01/09 11:53:27;;;;;;;0.00;0.00;;;8.80;99.90;;;;;;5014523;28;20250;-63
2023/01/09 11:56:00;;;;;;;0.00;0.00;;;8.70;99.90;;;;;;5014746;28;20214;-62
2023/01/09 11:58:31;;;;;;;0.00;0.00;;;8.60;99.90;;;;;;5014662;28;20217;-62
2023/01/09 12:01:28;;;;;;;0.00;0.00;;;8.50;99.90;;;;;;5014793;28;20254;-62
2023/01/09 12:04:22;;;;;;;0.00;0.00;;;8.50;99.90;;;;;;5014557;28;20249;-62
2023/01/09 12:07:17;;;;;;;0.00;0.00;;;8.40;99.90;;;;;;5014447;28;20163;-62
2023/01/09 12:09:59;;;;;;;0.00;0.00;;;8.40;99.90;;;;;;5014316;28;20198;-62
2023/01/09 12:12:52;;;;;;;0.00;0.00;;;8.40;99.90;;;;;;5014374;28;20183;-62
2023/01/09 12:15:28;;;;;;;0.00;0.00;;;8.30;99.90;;;;;;5014438;28;20661;-62
2023/01/09 12:18:02;;;;;;;0.00;0.00;;;8.10;99.90;;;;;;5014200;28;20186;-62
2023/01/09 12:20:52;;;;;;;0.00;0.00;;;8.00;99.90;;;;;;5014256;28;20216;-62
2023/01/09 12:23:42;;;;;;;0.00;0.00;;;7.90;99.90;;;;;;5005334;28;20310;-62
2023/01/09 12:26:29;;;;;;;0.00;0.00;;;8.00;99.90;;;;;;5014233;28;20167;-62
2023/01/09 12:29:13;;;;;;;0.00;0.00;;;7.90;99.90;;;;;;5014210;28;20214;-62
2023/01/09 12:32:18;;;;;;;0.00;0.00;;;8.00;99.90;;;;;;5014025;28;20650;-62
2023/01/09 12:35:10;;;;;;;0.00;0.00;;;8.00;99.90;;;;;;5012721;28;20603;-63
2023/01/09 12:38:06;;;;;;;0.00;0.00;;;8.00;99.90;;;;;;5013897;28;20186;-62
2023/01/09 12:41:00;;;;;;;0.00;0.00;;;8.10;99.90;;;;;;5013729;28;20186;-62
2023/01/09 12:44:05;;;;;;;0.03;0.03;;;8.10;99.90;;;;;;5013800;28;20214;-63
2023/01/09 12:46:53;;;;;;;0.00;0.00;;;8.10;99.90;;;;;;5002736;28;20213;-62
2023/01/09 12:49:41;;;;;;;0.00;0.00;;;8.10;99.90;;;;;;5013733;28;20178;-63
2023/01/09 12:52:11;;;;;;;0.00;0.00;;;8.10;99.90;;;;;;5013711;28;20171;-62
2023/01/09 12:54:48;;;;;;;0.00;0.00;;;8.00;99.90;;;;;;5013441;28;20281;-63
2023/01/09 12:57:39;;;;;;;0.00;0.00;;;8.10;99.90;;;;;;5013503;28;20265;-63
2023/01/09 13:00:18;;;;;;;0.00;0.00;;;8.10;99.90;;;;;;5013620;28;20179;-62
2023/01/09 13:03:03;;;;;;;0.00;0.00;;;8.20;99.90;;;;;;5013409;28;20225;-62
2023/01/09 13:05:39;;;;;;;0.00;0.00;;;8.20;99.90;;;;;;5012657;28;20202;-63
2023/01/09 13:08:10;;;;;;;0.00;0.00;;;8.20;99.90;;;;;;5013395;28;20213;-62
2023/01/09 13:10:40;;;;;;;0.00;0.00;;;8.20;99.90;;;;;;5013321;28;20575;-63
2023/01/09 13:13:17;;;;;;;0.00;0.00;;;8.10;99.90;;;;;;5013412;28;20171;-63
2023/01/09 13:15:56;;;;;;;0.00;0.00;;;8.10;99.90;;;;;;5013172;28;20300;-62
2023/01/09 13:18:31;;;;;;;0.00;0.00;;;8.00;99.90;;;;;;5013254;28;20283;-63
2023/01/09 13:20:57;;;;;;;0.00;0.00;;;8.00;99.90;;;;;;5013182;28;20181;-62
2023/01/09 13:23:58;;;;;;;0.00;0.00;;;8.00;99.90;;;;;;5013012;28;20218;-62
2023/01/09 13:26:29;;;;;;;0.00;0.00;;;8.00;99.90;;;;;;5013122;28;20720;-62
2023/01/09 13:29:05;;;;;;;0.00;0.00;;;8.00;99.90;;;;;;5013040;28;20277;-62
2023/01/09 13:31:39;;;;;;;0.00;0.00;;;8.00;99.90;;;;;;5012837;28;20174;-62